Withee, WI (54498)

6:39 PM CST on January 24, 2017 (GMT -0600)
Little Black | | Change Station
Active Advisory: Winter Weather Advisory

Elev 1400 ft 45.09 °N, 90.43 °W | Updated 11 seconds ago

Overcast
Overcast
33.4 °F
Feels Like 33 °F
N
0.9
Wind Variable Wind from ESE
Gusts 2.5 mph

Today
High -- | Low -- °F
--% Chance of Precip.
Yesterday
High -- | Low -- °F
Precip. -- in
Pressure 29.78 in
Visibility 10.0 miles
Clouds Overcast 1100 ft
Windchill 33 °F
Dew Point 27 °F
Humidity 77%
Rainfall 0.00 in
Snow Depth Not available.
7:30 AM 4:59 PM
Waning Crescent, 9% visible
METAR KMDZ 250015Z AUTO 07004KT 10SM OVC011 00/M02 A2978 RMK AO2 T00001016
Pressure 29.78 in
Visibility 10.0 miles
Clouds Overcast 1100 ft
Windchill 33 °F
Dew Point 27 °F
Humidity 77%
Rainfall 0.00 in
Snow Depth Not available.
7:30 AM 4:59 PM
Waning Crescent, 9% visible
METAR KMDZ 250015Z AUTO 07004KT 10SM OVC011 00/M02 A2978 RMK AO2 T00001016

Get Your Daily Forecast Email!

Thanks for signing up!

Be on the lookout for a verification email in your inbox.

You'll start receiving the daily forecast at 8 AM.

×

10-Day Weather Forecast

Almanac

Astronomy

Jan. 24, 2017 Rise Set
Actual Time
Civil Twilight
Nautical Twilight
Astronomical Twilight
Moon
Length of Visible Light
Length of Day
Tomorrow will be .
, % of the Moon is Illuminated

Today's Extremes

State Highs State Lows

Community

WunderPhotos

Upload Photos

1,962,540 photos uploaded!

WunderBlog® & News

Nearby

Air Quality

  Air Quality AQ Index Pollutant
Not available.

Snow Depth

Station Depth Elevation

Earthquake Activity

City Distance Mag. Time & Date
Minimum magnitude displayed is 2.5.

Coastal Water Temperatures

Place Temperature

Stations

Nearby Weather Stations

Station Location Temp. Windchill Dew Point Humidity Wind Precip. Elev Updated Type
                   

Watches & Warnings

Winter Weather Advisory
Issued: 3:41 PM CST Jan. 24, 2017 – National Weather Service

... Winter Weather Advisory remains in effect from 9 PM this
evening to 6 PM CST Wednesday...

* expect snow to develop between 9 PM and midnight... and then
diminish late Wednesday afternoon.

* The heaviest snowfall rates will occur between midnight and 6
am Wednesday.

* Total snow accumulations of 3 to 5 inches are expected.

* Look for reduced visibilities at times.

* Plan on slippery Road conditions... including during the
morning commute on Wednesday.

Precautionary/preparedness actions...

A Winter Weather Advisory means that periods of snow... sleet or
freezing rain will cause travel difficulties. Be prepared for
slippery roads and limited visibilities... and use caution while
driving. The latest Road conditions for the state you are calling
from can be obtained by calling 5 1 1.



Boyne